sensor_id;sensor_type;location;lat;lon;timestamp;P1;durP1;ratioP1;P2;durP2;ratioP2
20988;SDS011;10653;47.052;15.410;2023-04-09T00:02:15;20.93;;;18.90;;
20988;SDS011;10653;47.052;15.410;2023-04-09T00:04:41;21.05;;;19.02;;
20988;SDS011;10653;47.052;15.410;2023-04-09T00:07:07;21.25;;;19.17;;
20988;SDS011;10653;47.052;15.410;2023-04-09T00:09:33;21.13;;;19.07;;
20988;SDS011;10653;47.052;15.410;2023-04-09T00:11:59;23.00;;;20.80;;
20988;SDS011;10653;47.052;15.410;2023-04-09T00:14:26;21.70;;;19.48;;
20988;SDS011;10653;47.052;15.410;2023-04-09T00:16:52;21.13;;;19.02;;
20988;SDS011;10653;47.052;15.410;2023-04-09T00:19:18;21.58;;;19.60;;
20988;SDS011;10653;47.052;15.410;2023-04-09T00:21:44;18.90;;;17.17;;
20988;SDS011;10653;47.052;15.410;2023-04-09T00:24:10;18.77;;;16.90;;
20988;SDS011;10653;47.052;15.410;2023-04-09T00:26:37;21.25;;;19.10;;
20988;SDS011;10653;47.052;15.410;2023-04-09T00:29:03;17.40;;;15.60;;
20988;SDS011;10653;47.052;15.410;2023-04-09T00:31:29;18.50;;;16.70;;
20988;SDS011;10653;47.052;15.410;2023-04-09T00:33:55;18.63;;;16.77;;
20988;SDS011;10653;47.052;15.410;2023-04-09T00:36:21;19.98;;;17.98;;
20988;SDS011;10653;47.052;15.410;2023-04-09T00:38:48;18.95;;;17.00;;
20988;SDS011;10653;47.052;15.410;2023-04-09T00:41:16;21.10;;;19.05;;
20988;SDS011;10653;47.052;15.410;2023-04-09T00:43:42;21.30;;;19.10;;
20988;SDS011;10653;47.052;15.410;2023-04-09T00:46:08;18.83;;;16.92;;
20988;SDS011;10653;47.052;15.410;2023-04-09T00:48:34;19.95;;;17.85;;
20988;SDS011;10653;47.052;15.410;2023-04-09T00:51:00;22.33;;;19.90;;
20988;SDS011;10653;47.052;15.410;2023-04-09T00:53:26;20.77;;;18.60;;
20988;SDS011;10653;47.052;15.410;2023-04-09T00:55:52;19.77;;;17.73;;
20988;SDS011;10653;47.052;15.410;2023-04-09T00:58:19;19.95;;;17.85;;
20988;SDS011;10653;47.052;15.410;2023-04-09T01:00:45;21.02;;;18.90;;
20988;SDS011;10653;47.052;15.410;2023-04-09T01:03:11;20.55;;;18.48;;
20988;SDS011;10653;47.052;15.410;2023-04-09T01:08:09;20.15;;;18.05;;
20988;SDS011;10653;47.052;15.410;2023-04-09T01:10:40;20.90;;;18.80;;
20988;SDS011;10653;47.052;15.410;2023-04-09T01:15:43;20.80;;;18.75;;
20988;SDS011;10653;47.052;15.410;2023-04-09T01:18:25;19.88;;;17.83;;
20988;SDS011;10653;47.052;15.410;2023-04-09T01:20:59;21.15;;;18.17;;
20988;SDS011;10653;47.052;15.410;2023-04-09T01:23:36;19.90;;;17.95;;
20988;SDS011;10653;47.052;15.410;2023-04-09T01:28:51;21.15;;;19.05;;
20988;SDS011;10653;47.052;15.410;2023-04-09T01:31:18;18.02;;;16.23;;
20988;SDS011;10653;47.052;15.410;2023-04-09T01:33:45;19.08;;;17.08;;
20988;SDS011;10653;47.052;15.410;2023-04-09T01:36:11;17.15;;;15.48;;
20988;SDS011;10653;47.052;15.410;2023-04-09T01:38:41;19.23;;;17.08;;
20988;SDS011;10653;47.052;15.410;2023-04-09T01:41:09;18.15;;;16.45;;
20988;SDS011;10653;47.052;15.410;2023-04-09T01:43:35;19.40;;;17.00;;
20988;SDS011;10653;47.052;15.410;2023-04-09T01:46:02;17.55;;;15.63;;
20988;SDS011;10653;47.052;15.410;2023-04-09T01:48:29;16.75;;;15.10;;
20988;SDS011;10653;47.052;15.410;2023-04-09T01:50:56;17.30;;;15.50;;
20988;SDS011;10653;47.052;15.410;2023-04-09T01:53:23;17.40;;;14.93;;
20988;SDS011;10653;47.052;15.410;2023-04-09T01:55:52;15.55;;;14.02;;
20988;SDS011;10653;47.052;15.410;2023-04-09T01:58:19;16.48;;;14.88;;
20988;SDS011;10653;47.052;15.410;2023-04-09T02:00:46;17.02;;;15.27;;
20988;SDS011;10653;47.052;15.410;2023-04-09T02:05:40;16.87;;;15.10;;
20988;SDS011;10653;47.052;15.410;2023-04-09T02:08:08;17.02;;;15.30;;
20988;SDS011;10653;47.052;15.410;2023-04-09T02:10:35;15.93;;;14.32;;
20988;SDS011;10653;47.052;15.410;2023-04-09T02:13:04;15.25;;;13.85;;
20988;SDS011;10653;47.052;15.410;2023-04-09T02:15:30;16.80;;;14.82;;
20988;SDS011;10653;47.052;15.410;2023-04-09T02:17:56;16.63;;;14.88;;
20988;SDS011;10653;47.052;15.410;2023-04-09T02:20:22;15.98;;;13.95;;
20988;SDS011;10653;47.052;15.410;2023-04-09T02:22:48;14.10;;;12.73;;
20988;SDS011;10653;47.052;15.410;2023-04-09T02:25:14;15.20;;;13.70;;
20988;SDS011;10653;47.052;15.410;2023-04-09T02:27:40;14.63;;;13.18;;
20988;SDS011;10653;47.052;15.410;2023-04-09T02:30:07;14.57;;;13.07;;
20988;SDS011;10653;47.052;15.410;2023-04-09T02:32:33;14.55;;;12.52;;
20988;SDS011;10653;47.052;15.410;2023-04-09T02:34:59;15.32;;;13.70;;
20988;SDS011;10653;47.052;15.410;2023-04-09T02:37:25;15.13;;;13.52;;
20988;SDS011;10653;47.052;15.410;2023-04-09T02:39:51;14.13;;;12.80;;
20988;SDS011;10653;47.052;15.410;2023-04-09T02:42:17;15.82;;;13.50;;
20988;SDS011;10653;47.052;15.410;2023-04-09T02:44:43;16.23;;;14.60;;
20988;SDS011;10653;47.052;15.410;2023-04-09T02:47:09;15.10;;;13.60;;
20988;SDS011;10653;47.052;15.410;2023-04-09T02:49:35;15.63;;;13.80;;
20988;SDS011;10653;47.052;15.410;2023-04-09T02:52:01;14.90;;;13.50;;
20988;SDS011;10653;47.052;15.410;2023-04-09T02:54:27;17.57;;;15.87;;
20988;SDS011;10653;47.052;15.410;2023-04-09T02:56:53;16.52;;;14.80;;
20988;SDS011;10653;47.052;15.410;2023-04-09T02:59:20;17.10;;;15.40;;
20988;SDS011;10653;47.052;15.410;2023-04-09T03:01:46;16.13;;;14.53;;
20988;SDS011;10653;47.052;15.410;2023-04-09T03:04:12;16.13;;;14.53;;
20988;SDS011;10653;47.052;15.410;2023-04-09T03:06:38;16.30;;;14.70;;
20988;SDS011;10653;47.052;15.410;2023-04-09T03:09:04;16.17;;;14.48;;
20988;SDS011;10653;47.052;15.410;2023-04-09T03:11:30;17.30;;;15.57;;
20988;SDS011;10653;47.052;15.410;2023-04-09T03:13:56;17.33;;;15.70;;
20988;SDS011;10653;47.052;15.410;2023-04-09T03:16:23;16.57;;;14.00;;
20988;SDS011;10653;47.052;15.410;2023-04-09T03:18:50;16.58;;;14.88;;
20988;SDS011;10653;47.052;15.410;2023-04-09T03:21:16;19.05;;;16.98;;
20988;SDS011;10653;47.052;15.410;2023-04-09T03:23:42;19.75;;;17.83;;
20988;SDS011;10653;47.052;15.410;2023-04-09T03:26:08;19.95;;;17.83;;
20988;SDS011;10653;47.052;15.410;2023-04-09T03:28:34;18.67;;;16.77;;
20988;SDS011;10653;47.052;15.410;2023-04-09T03:31:00;15.73;;;14.13;;
20988;SDS011;10653;47.052;15.410;2023-04-09T03:33:26;16.80;;;15.10;;
20988;SDS011;10653;47.052;15.410;2023-04-09T03:35:52;15.18;;;13.57;;
20988;SDS011;10653;47.052;15.410;2023-04-09T03:38:18;16.23;;;13.97;;
20988;SDS011;10653;47.052;15.410;2023-04-09T03:40:44;16.77;;;15.20;;
20988;SDS011;10653;47.052;15.410;2023-04-09T03:43:10;15.00;;;13.60;;
20988;SDS011;10653;47.052;15.410;2023-04-09T03:45:36;13.93;;;12.55;;
20988;SDS011;10653;47.052;15.410;2023-04-09T03:48:02;14.60;;;13.23;;
20988;SDS011;10653;47.052;15.410;2023-04-09T03:50:28;14.20;;;12.20;;
20988;SDS011;10653;47.052;15.410;2023-04-09T03:52:54;14.73;;;13.18;;
20988;SDS011;10653;47.052;15.410;2023-04-09T03:55:20;13.67;;;12.27;;
20988;SDS011;10653;47.052;15.410;2023-04-09T03:57:46;14.48;;;13.02;;
20988;SDS011;10653;47.052;15.410;2023-04-09T04:00:12;13.60;;;12.25;;
20988;SDS011;10653;47.052;15.410;2023-04-09T04:02:38;13.50;;;12.10;;
20988;SDS011;10653;47.052;15.410;2023-04-09T04:05:04;15.00;;;13.48;;
20988;SDS011;10653;47.052;15.410;2023-04-09T04:07:31;15.35;;;13.75;;
20988;SDS011;10653;47.052;15.410;2023-04-09T04:09:57;15.10;;;13.60;;
20988;SDS011;10653;47.052;15.410;2023-04-09T04:12:23;14.33;;;12.93;;
20988;SDS011;10653;47.052;15.410;2023-04-09T04:14:49;14.73;;;13.23;;
20988;SDS011;10653;47.052;15.410;2023-04-09T04:17:15;13.40;;;12.15;;
20988;SDS011;10653;47.052;15.410;2023-04-09T04:19:41;14.48;;;12.98;;
20988;SDS011;10653;47.052;15.410;2023-04-09T04:22:07;13.27;;;11.97;;
20988;SDS011;10653;47.052;15.410;2023-04-09T04:24:33;14.00;;;12.67;;
20988;SDS011;10653;47.052;15.410;2023-04-09T04:26:59;13.70;;;12.40;;
20988;SDS011;10653;47.052;15.410;2023-04-09T04:29:26;17.50;;;15.43;;
20988;SDS011;10653;47.052;15.410;2023-04-09T04:31:52;15.50;;;13.98;;
20988;SDS011;10653;47.052;15.410;2023-04-09T04:34:18;16.67;;;15.00;;
20988;SDS011;10653;47.052;15.410;2023-04-09T04:36:44;14.70;;;13.20;;
20988;SDS011;10653;47.052;15.410;2023-04-09T04:39:10;16.47;;;14.87;;
20988;SDS011;10653;47.052;15.410;2023-04-09T04:41:37;17.30;;;15.70;;
20988;SDS011;10653;47.052;15.410;2023-04-09T04:44:03;17.88;;;16.08;;
20988;SDS011;10653;47.052;15.410;2023-04-09T04:46:29;20.92;;;18.83;;
20988;SDS011;10653;47.052;15.410;2023-04-09T04:48:55;19.07;;;17.10;;
20988;SDS011;10653;47.052;15.410;2023-04-09T04:51:21;17.83;;;15.23;;
20988;SDS011;10653;47.052;15.410;2023-04-09T04:53:47;17.20;;;15.15;;
20988;SDS011;10653;47.052;15.410;2023-04-09T04:56:13;18.70;;;16.80;;
20988;SDS011;10653;47.052;15.410;2023-04-09T04:58:39;17.37;;;15.57;;
20988;SDS011;10653;47.052;15.410;2023-04-09T05:01:05;16.50;;;14.90;;
20988;SDS011;10653;47.052;15.410;2023-04-09T05:03:32;16.98;;;14.77;;
20988;SDS011;10653;47.052;15.410;2023-04-09T05:05:58;16.83;;;15.07;;
20988;SDS011;10653;47.052;15.410;2023-04-09T05:08:24;17.67;;;15.77;;
20988;SDS011;10653;47.052;15.410;2023-04-09T05:10:50;16.87;;;15.20;;
20988;SDS011;10653;47.052;15.410;2023-04-09T05:13:16;17.43;;;15.13;;
20988;SDS011;10653;47.052;15.410;2023-04-09T05:15:42;16.63;;;15.02;;
20988;SDS011;10653;47.052;15.410;2023-04-09T05:18:08;17.70;;;15.87;;
20988;SDS011;10653;47.052;15.410;2023-04-09T05:20:34;17.80;;;16.00;;
20988;SDS011;10653;47.052;15.410;2023-04-09T05:23:00;17.83;;;16.13;;
20988;SDS011;10653;47.052;15.410;2023-04-09T05:25:26;18.73;;;16.93;;
20988;SDS011;10653;47.052;15.410;2023-04-09T05:27:52;16.37;;;14.70;;
20988;SDS011;10653;47.052;15.410;2023-04-09T05:30:18;16.33;;;14.80;;
20988;SDS011;10653;47.052;15.410;2023-04-09T05:32:45;16.40;;;14.70;;
20988;SDS011;10653;47.052;15.410;2023-04-09T05:35:11;16.03;;;14.33;;
20988;SDS011;10653;47.052;15.410;2023-04-09T05:37:37;17.58;;;15.77;;
20988;SDS011;10653;47.052;15.410;2023-04-09T05:40:03;17.13;;;15.20;;
20988;SDS011;10653;47.052;15.410;2023-04-09T05:42:29;16.48;;;14.77;;
20988;SDS011;10653;47.052;15.410;2023-04-09T05:44:55;15.63;;;13.80;;
20988;SDS011;10653;47.052;15.410;2023-04-09T05:47:21;15.83;;;14.20;;
20988;SDS011;10653;47.052;15.410;2023-04-09T05:49:47;15.00;;;13.50;;
20988;SDS011;10653;47.052;15.410;2023-04-09T05:52:14;15.70;;;14.10;;
20988;SDS011;10653;47.052;15.410;2023-04-09T05:54:41;13.80;;;12.35;;
20988;SDS011;10653;47.052;15.410;2023-04-09T05:57:07;14.07;;;12.80;;
20988;SDS011;10653;47.052;15.410;2023-04-09T05:59:33;15.98;;;14.35;;
20988;SDS011;10653;47.052;15.410;2023-04-09T06:01:59;15.02;;;13.52;;
20988;SDS011;10653;47.052;15.410;2023-04-09T06:04:25;15.20;;;13.63;;
20988;SDS011;10653;47.052;15.410;2023-04-09T06:06:51;13.73;;;12.33;;
20988;SDS011;10653;47.052;15.410;2023-04-09T06:09:17;12.70;;;11.50;;
20988;SDS011;10653;47.052;15.410;2023-04-09T06:11:43;10.73;;;9.63;;
20988;SDS011;10653;47.052;15.410;2023-04-09T06:14:09;12.48;;;10.85;;
20988;SDS011;10653;47.052;15.410;2023-04-09T06:16:40;13.13;;;11.87;;
20988;SDS011;10653;47.052;15.410;2023-04-09T06:19:06;14.37;;;12.90;;
20988;SDS011;10653;47.052;15.410;2023-04-09T06:21:32;14.33;;;12.93;;
20988;SDS011;10653;47.052;15.410;2023-04-09T06:23:59;11.93;;;10.80;;
20988;SDS011;10653;47.052;15.410;2023-04-09T06:26:25;12.27;;;11.07;;
20988;SDS011;10653;47.052;15.410;2023-04-09T06:28:51;11.83;;;10.63;;
20988;SDS011;10653;47.052;15.410;2023-04-09T06:31:17;11.93;;;10.73;;
20988;SDS011;10653;47.052;15.410;2023-04-09T06:33:43;12.23;;;10.97;;
20988;SDS011;10653;47.052;15.410;2023-04-09T06:36:10;12.23;;;10.93;;
20988;SDS011;10653;47.052;15.410;2023-04-09T06:38:36;10.67;;;9.57;;
20988;SDS011;10653;47.052;15.410;2023-04-09T06:41:02;11.13;;;10.23;;
20988;SDS011;10653;47.052;15.410;2023-04-09T06:43:30;11.60;;;10.40;;
20988;SDS011;10653;47.052;15.410;2023-04-09T06:45:56;11.77;;;10.57;;
20988;SDS011;10653;47.052;15.410;2023-04-09T06:48:22;12.10;;;10.87;;
20988;SDS011;10653;47.052;15.410;2023-04-09T06:50:48;12.67;;;10.83;;
20988;SDS011;10653;47.052;15.410;2023-04-09T06:53:14;11.73;;;10.50;;
20988;SDS011;10653;47.052;15.410;2023-04-09T06:55:41;12.67;;;11.37;;
20988;SDS011;10653;47.052;15.410;2023-04-09T06:58:07;10.93;;;9.80;;
20988;SDS011;10653;47.052;15.410;2023-04-09T07:00:33;12.53;;;11.07;;
20988;SDS011;10653;47.052;15.410;2023-04-09T07:02:59;11.70;;;10.50;;
20988;SDS011;10653;47.052;15.410;2023-04-09T07:05:25;11.50;;;10.40;;
20988;SDS011;10653;47.052;15.410;2023-04-09T07:07:51;13.10;;;10.60;;
20988;SDS011;10653;47.052;15.410;2023-04-09T07:10:17;14.77;;;11.37;;
20988;SDS011;10653;47.052;15.410;2023-04-09T07:12:43;11.90;;;10.70;;
20988;SDS011;10653;47.052;15.410;2023-04-09T07:15:09;10.67;;;9.57;;
20988;SDS011;10653;47.052;15.410;2023-04-09T07:17:35;9.90;;;8.90;;
20988;SDS011;10653;47.052;15.410;2023-04-09T07:20:02;12.17;;;10.97;;
20988;SDS011;10653;47.052;15.410;2023-04-09T07:22:28;11.13;;;10.00;;
20988;SDS011;10653;47.052;15.410;2023-04-09T07:24:55;11.17;;;9.30;;
20988;SDS011;10653;47.052;15.410;2023-04-09T07:27:22;10.77;;;9.77;;
20988;SDS011;10653;47.052;15.410;2023-04-09T07:29:48;10.77;;;9.65;;
20988;SDS011;10653;47.052;15.410;2023-04-09T07:32:14;11.67;;;10.10;;
20988;SDS011;10653;47.052;15.410;2023-04-09T07:34:41;11.90;;;9.50;;
20988;SDS011;10653;47.052;15.410;2023-04-09T07:37:07;10.60;;;9.37;;
20988;SDS011;10653;47.052;15.410;2023-04-09T07:39:33;10.80;;;9.70;;
20988;SDS011;10653;47.052;15.410;2023-04-09T07:42:02;10.60;;;9.50;;
20988;SDS011;10653;47.052;15.410;2023-04-09T07:44:32;10.97;;;9.97;;
20988;SDS011;10653;47.052;15.410;2023-04-09T07:46:58;11.83;;;10.23;;
20988;SDS011;10653;47.052;15.410;2023-04-09T07:49:24;9.30;;;8.40;;
20988;SDS011;10653;47.052;15.410;2023-04-09T07:51:50;9.70;;;8.80;;
20988;SDS011;10653;47.052;15.410;2023-04-09T07:54:16;11.30;;;9.80;;
20988;SDS011;10653;47.052;15.410;2023-04-09T07:56:45;10.40;;;9.40;;
20988;SDS011;10653;47.052;15.410;2023-04-09T07:59:11;11.63;;;10.53;;
20988;SDS011;10653;47.052;15.410;2023-04-09T08:01:39;10.20;;;9.20;;
20988;SDS011;10653;47.052;15.410;2023-04-09T08:04:05;9.27;;;8.37;;
20988;SDS011;10653;47.052;15.410;2023-04-09T08:06:31;9.13;;;8.23;;
20988;SDS011;10653;47.052;15.410;2023-04-09T08:08:57;9.33;;;8.40;;
20988;SDS011;10653;47.052;15.410;2023-04-09T08:11:23;9.80;;;8.67;;
20988;SDS011;10653;47.052;15.410;2023-04-09T08:13:53;10.37;;;9.37;;
20988;SDS011;10653;47.052;15.410;2023-04-09T08:16:20;9.17;;;8.27;;
20988;SDS011;10653;47.052;15.410;2023-04-09T08:18:47;9.33;;;8.47;;
20988;SDS011;10653;47.052;15.410;2023-04-09T08:21:13;10.10;;;9.10;;
20988;SDS011;10653;47.052;15.410;2023-04-09T08:23:39;11.23;;;9.20;;
20988;SDS011;10653;47.052;15.410;2023-04-09T08:26:05;9.27;;;8.33;;
20988;SDS011;10653;47.052;15.410;2023-04-09T08:28:31;9.40;;;8.50;;
20988;SDS011;10653;47.052;15.410;2023-04-09T08:30:57;9.70;;;8.70;;
20988;SDS011;10653;47.052;15.410;2023-04-09T08:33:24;10.27;;;9.17;;
20988;SDS011;10653;47.052;15.410;2023-04-09T08:35:50;9.43;;;8.33;;
20988;SDS011;10653;47.052;15.410;2023-04-09T08:38:17;9.23;;;8.33;;
20988;SDS011;10653;47.052;15.410;2023-04-09T08:40:43;7.50;;;6.80;;
20988;SDS011;10653;47.052;15.410;2023-04-09T08:43:09;8.20;;;7.40;;
20988;SDS011;10653;47.052;15.410;2023-04-09T08:45:40;8.33;;;7.40;;
20988;SDS011;10653;47.052;15.410;2023-04-09T08:48:06;9.60;;;7.40;;
20988;SDS011;10653;47.052;15.410;2023-04-09T08:50:33;9.33;;;7.70;;
20988;SDS011;10653;47.052;15.410;2023-04-09T08:53:03;8.40;;;7.53;;
20988;SDS011;10653;47.052;15.410;2023-04-09T08:55:29;9.00;;;8.10;;
20988;SDS011;10653;47.052;15.410;2023-04-09T08:57:58;7.67;;;6.97;;
20988;SDS011;10653;47.052;15.410;2023-04-09T09:00:24;8.50;;;7.03;;
20988;SDS011;10653;47.052;15.410;2023-04-09T09:03:01;8.03;;;6.67;;
20988;SDS011;10653;47.052;15.410;2023-04-09T09:06:01;7.07;;;6.37;;
20988;SDS011;10653;47.052;15.410;2023-04-09T09:08:23;8.03;;;7.27;;
20988;SDS011;10653;47.052;15.410;2023-04-09T09:10:50;9.03;;;8.23;;
20988;SDS011;10653;47.052;15.410;2023-04-09T09:13:23;8.47;;;7.67;;
20988;SDS011;10653;47.052;15.410;2023-04-09T09:15:50;9.20;;;8.30;;
20988;SDS011;10653;47.052;15.410;2023-04-09T09:18:42;8.13;;;7.33;;
20988;SDS011;10653;47.052;15.410;2023-04-09T09:21:13;9.60;;;8.60;;
20988;SDS011;10653;47.052;15.410;2023-04-09T09:23:39;7.70;;;6.90;;
20988;SDS011;10653;47.052;15.410;2023-04-09T09:26:16;8.47;;;7.57;;
20988;SDS011;10653;47.052;15.410;2023-04-09T09:28:43;9.60;;;8.60;;
20988;SDS011;10653;47.052;15.410;2023-04-09T09:31:11;9.10;;;8.10;;
20988;SDS011;10653;47.052;15.410;2023-04-09T09:33:37;8.90;;;7.57;;
20988;SDS011;10653;47.052;15.410;2023-04-09T09:36:03;9.17;;;8.20;;
20988;SDS011;10653;47.052;15.410;2023-04-09T09:38:30;10.47;;;9.37;;
20988;SDS011;10653;47.052;15.410;2023-04-09T09:40:56;8.60;;;7.80;;
20988;SDS011;10653;47.052;15.410;2023-04-09T09:43:22;10.23;;;9.20;;
20988;SDS011;10653;47.052;15.410;2023-04-09T09:45:48;9.53;;;8.53;;
20988;SDS011;10653;47.052;15.410;2023-04-09T09:48:15;9.47;;;8.57;;
20988;SDS011;10653;47.052;15.410;2023-04-09T09:50:41;9.50;;;8.57;;
20988;SDS011;10653;47.052;15.410;2023-04-09T09:53:08;10.10;;;9.10;;
20988;SDS011;10653;47.052;15.410;2023-04-09T09:55:38;8.60;;;7.80;;
20988;SDS011;10653;47.052;15.410;2023-04-09T09:58:10;9.20;;;8.30;;
20988;SDS011;10653;47.052;15.410;2023-04-09T10:00:37;8.90;;;8.00;;
20988;SDS011;10653;47.052;15.410;2023-04-09T10:03:11;8.37;;;7.57;;
20988;SDS011;10653;47.052;15.410;2023-04-09T10:05:39;9.20;;;8.13;;
20988;SDS011;10653;47.052;15.410;2023-04-09T10:08:05;8.83;;;7.93;;
20988;SDS011;10653;47.052;15.410;2023-04-09T10:10:32;9.67;;;8.83;;
20988;SDS011;10653;47.052;15.410;2023-04-09T10:12:58;8.80;;;7.80;;
20988;SDS011;10653;47.052;15.410;2023-04-09T10:15:25;8.70;;;7.80;;
20988;SDS011;10653;47.052;15.410;2023-04-09T10:17:53;7.37;;;6.67;;
20988;SDS011;10653;47.052;15.410;2023-04-09T10:20:25;7.70;;;6.90;;
20988;SDS011;10653;47.052;15.410;2023-04-09T10:22:52;7.37;;;5.93;;
20988;SDS011;10653;47.052;15.410;2023-04-09T10:25:19;6.90;;;6.30;;
20988;SDS011;10653;47.052;15.410;2023-04-09T10:27:45;6.90;;;6.10;;
20988;SDS011;10653;47.052;15.410;2023-04-09T10:30:33;4.93;;;4.47;;
20988;SDS011;10653;47.052;15.410;2023-04-09T10:33:13;5.53;;;5.00;;
20988;SDS011;10653;47.052;15.410;2023-04-09T10:35:40;6.03;;;5.43;;
20988;SDS011;10653;47.052;15.410;2023-04-09T10:38:06;6.27;;;5.60;;
20988;SDS011;10653;47.052;15.410;2023-04-09T10:40:33;5.17;;;4.77;;
20988;SDS011;10653;47.052;15.410;2023-04-09T10:42:59;5.50;;;5.10;;
20988;SDS011;10653;47.052;15.410;2023-04-09T10:45:28;5.03;;;4.50;;
20988;SDS011;10653;47.052;15.410;2023-04-09T10:48:03;5.33;;;4.83;;
20988;SDS011;10653;47.052;15.410;2023-04-09T10:50:31;5.17;;;4.67;;
20988;SDS011;10653;47.052;15.410;2023-04-09T10:53:01;5.80;;;5.20;;
20988;SDS011;10653;47.052;15.410;2023-04-09T10:55:38;4.47;;;4.10;;
20988;SDS011;10653;47.052;15.410;2023-04-09T10:58:05;5.43;;;4.30;;
20988;SDS011;10653;47.052;15.410;2023-04-09T11:00:32;4.90;;;4.40;;
20988;SDS011;10653;47.052;15.410;2023-04-09T11:05:32;4.47;;;4.07;;
20988;SDS011;10653;47.052;15.410;2023-04-09T11:08:11;5.20;;;4.70;;
20988;SDS011;10653;47.052;15.410;2023-04-09T11:10:38;4.80;;;4.20;;
20988;SDS011;10653;47.052;15.410;2023-04-09T11:13:05;3.77;;;3.47;;
20988;SDS011;10653;47.052;15.410;2023-04-09T11:15:33;4.90;;;4.50;;
20988;SDS011;10653;47.052;15.410;2023-04-09T11:18:00;7.17;;;3.93;;
20988;SDS011;10653;47.052;15.410;2023-04-09T11:20:26;4.50;;;4.20;;
20988;SDS011;10653;47.052;15.410;2023-04-09T11:22:54;6.07;;;5.10;;
20988;SDS011;10653;47.052;15.410;2023-04-09T11:25:21;4.83;;;3.97;;
20988;SDS011;10653;47.052;15.410;2023-04-09T11:27:47;4.83;;;4.23;;
20988;SDS011;10653;47.052;15.410;2023-04-09T11:30:13;4.87;;;4.47;;
20988;SDS011;10653;47.052;15.410;2023-04-09T11:32:40;5.00;;;4.27;;
20988;SDS011;10653;47.052;15.410;2023-04-09T11:35:12;4.47;;;4.07;;
20988;SDS011;10653;47.052;15.410;2023-04-09T11:37:39;4.20;;;3.90;;
20988;SDS011;10653;47.052;15.410;2023-04-09T11:40:06;4.43;;;4.03;;
20988;SDS011;10653;47.052;15.410;2023-04-09T11:42:33;4.50;;;4.10;;
20988;SDS011;10653;47.052;15.410;2023-04-09T11:44:59;4.03;;;3.63;;
20988;SDS011;10653;47.052;15.410;2023-04-09T11:47:25;4.70;;;4.17;;
20988;SDS011;10653;47.052;15.410;2023-04-09T11:49:51;5.30;;;4.77;;
20988;SDS011;10653;47.052;15.410;2023-04-09T11:52:18;5.10;;;4.60;;
20988;SDS011;10653;47.052;15.410;2023-04-09T11:54:47;4.97;;;4.37;;
20988;SDS011;10653;47.052;15.410;2023-04-09T11:57:14;5.13;;;4.73;;
20988;SDS011;10653;47.052;15.410;2023-04-09T11:59:40;4.03;;;3.73;;
20988;SDS011;10653;47.052;15.410;2023-04-09T12:02:06;5.50;;;5.00;;
20988;SDS011;10653;47.052;15.410;2023-04-09T12:04:32;4.90;;;4.50;;
20988;SDS011;10653;47.052;15.410;2023-04-09T12:06:58;4.53;;;4.13;;
20988;SDS011;10653;47.052;15.410;2023-04-09T12:09:25;4.23;;;3.83;;
20988;SDS011;10653;47.052;15.410;2023-04-09T12:11:51;5.40;;;4.90;;
20988;SDS011;10653;47.052;15.410;2023-04-09T12:14:17;5.33;;;4.83;;
20988;SDS011;10653;47.052;15.410;2023-04-09T12:16:49;6.33;;;4.90;;
20988;SDS011;10653;47.052;15.410;2023-04-09T12:19:15;4.50;;;4.10;;
20988;SDS011;10653;47.052;15.410;2023-04-09T12:21:50;4.80;;;4.30;;
20988;SDS011;10653;47.052;15.410;2023-04-09T12:24:23;4.37;;;3.80;;
20988;SDS011;10653;47.052;15.410;2023-04-09T12:26:50;4.70;;;4.20;;
20988;SDS011;10653;47.052;15.410;2023-04-09T12:29:17;4.27;;;3.87;;
20988;SDS011;10653;47.052;15.410;2023-04-09T12:31:44;4.63;;;4.13;;
20988;SDS011;10653;47.052;15.410;2023-04-09T12:34:10;5.10;;;4.10;;
20988;SDS011;10653;47.052;15.410;2023-04-09T12:36:37;4.57;;;4.17;;
20988;SDS011;10653;47.052;15.410;2023-04-09T12:39:03;4.93;;;4.53;;
20988;SDS011;10653;47.052;15.410;2023-04-09T12:41:29;5.10;;;3.80;;
20988;SDS011;10653;47.052;15.410;2023-04-09T12:43:55;5.57;;;5.07;;
20988;SDS011;10653;47.052;15.410;2023-04-09T12:46:21;6.93;;;4.43;;
20988;SDS011;10653;47.052;15.410;2023-04-09T12:48:47;5.33;;;4.70;;
20988;SDS011;10653;47.052;15.410;2023-04-09T12:51:13;6.17;;;5.57;;
20988;SDS011;10653;47.052;15.410;2023-04-09T12:53:40;6.23;;;5.63;;
20988;SDS011;10653;47.052;15.410;2023-04-09T12:56:06;5.87;;;5.27;;
20988;SDS011;10653;47.052;15.410;2023-04-09T12:58:32;5.20;;;4.80;;
20988;SDS011;10653;47.052;15.410;2023-04-09T13:00:58;5.97;;;5.47;;
20988;SDS011;10653;47.052;15.410;2023-04-09T13:03:24;5.60;;;4.47;;
20988;SDS011;10653;47.052;15.410;2023-04-09T13:05:51;6.17;;;5.57;;
20988;SDS011;10653;47.052;15.410;2023-04-09T13:08:17;5.80;;;5.20;;
20988;SDS011;10653;47.052;15.410;2023-04-09T13:10:43;4.77;;;3.90;;
20988;SDS011;10653;47.052;15.410;2023-04-09T13:13:09;7.73;;;4.10;;
20988;SDS011;10653;47.052;15.410;2023-04-09T13:15:38;3.47;;;3.10;;
20988;SDS011;10653;47.052;15.410;2023-04-09T13:18:07;3.40;;;2.80;;
20988;SDS011;10653;47.052;15.410;2023-04-09T13:20:33;4.67;;;3.43;;
20988;SDS011;10653;47.052;15.410;2023-04-09T13:22:59;3.20;;;2.90;;
20988;SDS011;10653;47.052;15.410;2023-04-09T13:25:25;3.17;;;2.90;;
20988;SDS011;10653;47.052;15.410;2023-04-09T13:27:51;3.10;;;2.80;;
20988;SDS011;10653;47.052;15.410;2023-04-09T13:30:17;4.40;;;3.13;;
20988;SDS011;10653;47.052;15.410;2023-04-09T13:32:43;3.43;;;3.13;;
20988;SDS011;10653;47.052;15.410;2023-04-09T13:35:09;3.30;;;3.03;;
20988;SDS011;10653;47.052;15.410;2023-04-09T13:37:36;3.50;;;3.20;;
20988;SDS011;10653;47.052;15.410;2023-04-09T13:40:02;3.47;;;3.17;;
20988;SDS011;10653;47.052;15.410;2023-04-09T13:42:28;2.70;;;2.50;;
20988;SDS011;10653;47.052;15.410;2023-04-09T13:44:55;2.70;;;2.50;;
20988;SDS011;10653;47.052;15.410;2023-04-09T13:47:21;3.23;;;2.93;;
20988;SDS011;10653;47.052;15.410;2023-04-09T13:49:47;3.00;;;2.70;;
20988;SDS011;10653;47.052;15.410;2023-04-09T13:52:15;3.30;;;3.00;;
20988;SDS011;10653;47.052;15.410;2023-04-09T13:54:42;2.73;;;2.53;;
20988;SDS011;10653;47.052;15.410;2023-04-09T13:57:08;3.13;;;2.83;;
20988;SDS011;10653;47.052;15.410;2023-04-09T13:59:34;3.60;;;3.30;;
20988;SDS011;10653;47.052;15.410;2023-04-09T14:02:02;3.47;;;3.17;;
20988;SDS011;10653;47.052;15.410;2023-04-09T14:04:28;3.77;;;3.37;;
20988;SDS011;10653;47.052;15.410;2023-04-09T14:06:54;3.80;;;3.50;;
20988;SDS011;10653;47.052;15.410;2023-04-09T14:09:21;3.60;;;3.30;;
20988;SDS011;10653;47.052;15.410;2023-04-09T14:11:47;4.20;;;3.80;;
20988;SDS011;10653;47.052;15.410;2023-04-09T14:14:13;3.10;;;2.90;;
20988;SDS011;10653;47.052;15.410;2023-04-09T14:16:39;4.30;;;3.90;;
20988;SDS011;10653;47.052;15.410;2023-04-09T14:19:05;4.77;;;4.27;;
20988;SDS011;10653;47.052;15.410;2023-04-09T14:21:32;4.60;;;4.20;;
20988;SDS011;10653;47.052;15.410;2023-04-09T14:23:58;4.90;;;4.40;;
20988;SDS011;10653;47.052;15.410;2023-04-09T14:26:24;4.00;;;3.47;;
20988;SDS011;10653;47.052;15.410;2023-04-09T14:28:50;6.37;;;5.70;;
20988;SDS011;10653;47.052;15.410;2023-04-09T14:31:16;10.83;;;10.00;;
20988;SDS011;10653;47.052;15.410;2023-04-09T14:33:46;5.13;;;4.63;;